UWKD Airport Information

Runway Information
Runway 11L Length 12218 ft width 144 ft
Elevation 349 ft Threshold 837 ft Heading 126
Runway 29R Length 12218 ft Width 144 ft
Elevation 410 ft Threshold 0 ft Heading 306
Runway 11R Length 8196 ft width 148 ft
Elevation 371 ft Threshold 0 ft Heading 124
Runway 29L Length 8196 ft Width 148 ft
Elevation 408 ft Threshold 0 ft Heading 304
Airport Frequencies
Type ATIS Name ATIS Frequency 126.8 MHZ
Type GND Name TAXIING Frequency 121.7 MHZ
Type RDR Name RADAR Frequency 119.4 MHZ
Type TWR Name TWR Frequency 120.3 MHZ
Airport Navaids
Type NDB Name Kazan Frequency 475 KHZ
Type NDB Name Kazan Frequency 475 KHZ
Type NDB Name Kazan Frequency 292 KHZ
Type VOR-DME Name Kazan Frequency 112700 KHZ
Type NDB Name Kazan Frequency 292 KHZ
Airport Weather Information & NOTAM
ADDS - METARS form results

(0721 UTC 17 October 2021)
Data provider http://aviationweather.gov/metar/data/
 
METAR text: UWKD 170700Z 23005MPS CAVOK 10/01 Q1015 WS R29 R29/CLRD70 NOSIG RMK QFE750/1001
Conditions at: UWKD (KAZAN , RU) observed 0700 UTC 17 October 2021
Temperature: 10.0°C (50°F)
Dewpoint: 1.0°C (34°F) [RH = 53%]
Pressure (altimeter): 29.97 inches Hg (1015.0 mb)
Winds: from the SW (230 degrees) at 12 MPH (10 knots; 5.1 m/s)
Visibility: 6 or more miles (10+ km)
Ceiling: ceiling and visibility are OK
Clouds: unknown
Weather: no significant weather observed at this time

METAR text: UWKD 170630Z 21005MPS CAVOK 10/01 Q1015 R11/CLRD70 NOSIG RMK QFE751/1002
Conditions at: UWKD (KAZAN , RU) observed 0630 UTC 17 October 2021
Temperature: 10.0°C (50°F)
Dewpoint: 1.0°C (34°F) [RH = 53%]
Pressure (altimeter): 29.97 inches Hg (1015.0 mb)
Winds: from the SSW (210 degrees) at 12 MPH (10 knots; 5.1 m/s)
Visibility: 6 or more miles (10+ km)
Ceiling: ceiling and visibility are OK
Clouds: unknown
Weather: no significant weather observed at this time

Forecast for: UWKD (KAZAN , RU)
Text: TAF UWKD 170500Z 1706/1806 20005G12MPS 9999 SCT030 TX12/1711Z TN05/1803Z
Forecast period: 0600 to 1500 UTC 17 October 2021
Forecast type: FROM: standard forecast or significant change
Winds: from the SSW (200 degrees) at 12 MPH (10 knots; 5.1 m/s)
gusting to 26 MPH (23 knots; 11.8 m/s)
Visibility: 6 or more miles (10+ km)
Ceiling: at least 12,000 feet AGL
Clouds: scattered clouds at 3000 feet AGL
Weather: no significant weather forecast for this period
Text: BECMG 1715/1717 21003MPS
Forecast period: 1500 UTC 17 October 2021 to 0600 UTC 18 October 2021
Forecast type: BECOMING: Conditions expected to become as follows by 1700 UTC 17 October 2021
Winds: from the SSW (210 degrees) at 7 MPH (6 knots; 3.1 m/s)
Visibility: 6 or more miles (10+ km)
Ceiling: at least 12,000 feet AGL
Clouds: scattered clouds at 3000 feet AGL
Weather: no significant weather forecast for this period